createdAt,value
2018-07-26T00:00:30.758Z,941.58
2018-07-26T00:01:38.750Z,941.52
2018-07-26T00:02:46.884Z,941.52
2018-07-26T00:03:54.850Z,941.52
2018-07-26T00:05:02.962Z,941.50
2018-07-26T00:06:11.085Z,941.51
2018-07-26T00:07:19.053Z,941.47
2018-07-26T00:08:27.236Z,941.50
2018-07-26T00:09:35.179Z,941.53
2018-07-26T00:10:43.346Z,941.52
2018-07-26T00:11:51.527Z,941.48
2018-07-26T00:13:00.651Z,941.54
2018-07-26T00:14:07.754Z,941.52
2018-07-26T00:15:15.700Z,941.53
2018-07-26T00:16:23.886Z,941.53
2018-07-26T00:17:31.853Z,941.49
2018-07-26T00:18:39.926Z,941.50
2018-07-26T00:19:48.096Z,941.49
2018-07-26T00:20:56.084Z,941.53
2018-07-26T00:22:04.457Z,941.51
2018-07-26T00:23:12.588Z,941.49
2018-07-26T00:24:20.663Z,941.51
2018-07-26T00:25:28.841Z,941.53
2018-07-26T00:26:36.800Z,941.53
2018-07-26T00:27:44.875Z,941.54
2018-07-26T00:28:52.920Z,941.54
2018-07-26T00:30:00.989Z,941.51
2018-07-26T00:31:09.156Z,941.53
2018-07-26T00:32:17.221Z,941.53
2018-07-26T00:33:25.180Z,941.48
2018-07-26T00:34:33.528Z,941.48
2018-07-26T00:35:41.596Z,941.48
2018-07-26T00:36:49.486Z,941.45
2018-07-26T00:37:57.557Z,941.51
2018-07-26T00:39:05.747Z,941.48
2018-07-26T00:40:13.807Z,941.50
2018-07-26T00:41:21.924Z,941.48
2018-07-26T00:42:30.260Z,941.49
2018-07-26T00:43:37.993Z,941.47
2018-07-26T00:44:46.051Z,941.47
2018-07-26T00:45:54.122Z,941.53
2018-07-26T00:47:02.211Z,941.47
2018-07-26T00:48:10.359Z,941.48
2018-07-26T00:49:18.687Z,941.44
2018-07-26T00:50:26.403Z,941.44
2018-07-26T00:52:51.740Z,941.43
2018-07-26T00:53:59.688Z,941.41
2018-07-26T00:55:07.749Z,941.40
2018-07-26T00:56:15.813Z,941.38
2018-07-26T00:57:23.883Z,941.34
2018-07-26T00:58:32.147Z,941.35
2018-07-26T00:59:40.035Z,941.36
2018-07-26T01:00:48.132Z,941.36
2018-07-26T01:01:56.143Z,941.33
2018-07-26T01:03:04.592Z,941.32
2018-07-26T01:04:12.379Z,941.34
2018-07-26T01:05:22.776Z,941.34
2018-07-26T01:06:28.423Z,941.33
2018-07-26T01:07:36.480Z,941.31
2018-07-26T01:09:55.300Z,941.34
2018-07-26T01:11:03.307Z,941.31
2018-07-26T01:12:11.400Z,941.29
2018-07-26T01:13:20.199Z,941.31
2018-07-26T01:14:27.503Z,941.26
2018-07-26T01:15:35.645Z,941.27
2018-07-26T01:16:43.656Z,941.29
2018-07-26T01:17:51.959Z,941.24
2018-07-26T01:19:00.175Z,941.22
2018-07-26T01:20:08.241Z,941.26
2018-07-26T01:21:16.347Z,941.28
2018-07-26T01:22:24.376Z,941.25
2018-07-26T01:23:32.449Z,941.22
2018-07-26T01:24:40.543Z,941.23
2018-07-26T01:25:48.570Z,941.21
2018-07-26T01:26:56.700Z,941.18
2018-07-26T01:28:04.709Z,941.23
2018-07-26T01:29:12.778Z,941.19
2018-07-26T01:30:20.845Z,941.18
2018-07-26T01:31:29.095Z,941.19
2018-07-26T01:32:37.066Z,941.19
2018-07-26T01:33:45.035Z,941.18
2018-07-26T01:34:53.117Z,941.14
2018-07-26T01:37:13.958Z,941.17
2018-07-26T01:38:21.773Z,941.17
2018-07-26T01:39:29.811Z,941.15
2018-07-26T01:40:37.873Z,941.17
2018-07-26T01:41:46.029Z,941.16
2018-07-26T01:42:54.010Z,941.16
2018-07-26T01:44:02.089Z,941.15
2018-07-26T01:45:10.145Z,941.13
2018-07-26T01:46:18.253Z,941.16
2018-07-26T01:47:26.377Z,941.18
2018-07-26T01:48:34.451Z,941.17
2018-07-26T01:49:42.433Z,941.17
2018-07-26T01:50:50.485Z,941.18
2018-07-26T01:51:58.538Z,941.19
2018-07-26T01:53:06.835Z,941.17
2018-07-26T01:54:14.893Z,941.15
2018-07-26T01:55:22.962Z,941.14
2018-07-26T01:56:31.030Z,941.12
2018-07-26T01:57:40.257Z,941.12
2018-07-26T01:58:47.148Z,941.10
2018-07-26T01:59:55.199Z,941.10
2018-07-26T02:01:03.279Z,941.13
2018-07-26T02:02:11.355Z,941.12
2018-07-26T02:03:19.508Z,941.12
2018-07-26T02:04:27.582Z,941.11
2018-07-26T02:05:35.532Z,941.11
2018-07-26T02:06:43.621Z,941.13
2018-07-26T02:07:51.786Z,941.13
2018-07-26T02:08:59.768Z,941.13
2018-07-26T02:10:07.832Z,941.09
2018-07-26T02:11:15.978Z,941.09
2018-07-26T02:12:24.048Z,941.07
2018-07-26T02:13:32.036Z,941.09
2018-07-26T02:14:40.089Z,941.10
2018-07-26T02:15:48.147Z,941.10
2018-07-26T02:16:56.241Z,941.10
2018-07-26T02:18:04.392Z,941.09
2018-07-26T02:19:12.367Z,941.09
2018-07-26T02:20:20.520Z,941.11
2018-07-26T02:21:28.509Z,941.09
2018-07-26T02:22:36.640Z,941.10
2018-07-26T02:23:44.636Z,941.09
2018-07-26T02:24:55.749Z,941.07
2018-07-26T02:26:00.763Z,941.07
2018-07-26T02:27:08.876Z,941.08
2018-07-26T02:28:17.024Z,941.12
2018-07-26T02:29:24.951Z,941.12
2018-07-26T02:30:33.054Z,941.11
2018-07-26T02:31:41.096Z,941.10
2018-07-26T02:32:49.170Z,941.08
2018-07-26T02:33:57.331Z,941.11
2018-07-26T02:35:05.280Z,941.13
2018-07-26T02:36:13.788Z,941.12
2018-07-26T02:37:21.418Z,941.11
2018-07-26T02:38:29.545Z,941.13
2018-07-26T02:39:37.683Z,941.13
2018-07-26T02:40:45.861Z,941.09
2018-07-26T02:41:53.698Z,941.10
2018-07-26T02:43:01.765Z,941.08
2018-07-26T02:44:09.851Z,941.07
2018-07-26T02:45:17.935Z,941.06
2018-07-26T02:46:25.965Z,941.09
2018-07-26T02:47:34.046Z,941.08
2018-07-26T02:48:42.134Z,941.08
2018-07-26T02:49:50.291Z,941.06
2018-07-26T02:50:58.228Z,941.08
2018-07-26T02:52:06.601Z,941.05
2018-07-26T02:53:14.575Z,941.07
2018-07-26T02:54:22.634Z,941.05
2018-07-26T02:55:30.796Z,941.10
2018-07-26T02:56:38.773Z,941.08
2018-07-26T02:57:46.862Z,941.08
2018-07-26T02:58:54.908Z,941.10
2018-07-26T03:00:02.969Z,941.11
2018-07-26T03:01:11.142Z,941.09
2018-07-26T03:02:19.158Z,941.08
2018-07-26T03:03:27.268Z,941.07
2018-07-26T03:04:35.217Z,941.08
2018-07-26T03:05:43.679Z,941.09
2018-07-26T03:06:51.468Z,941.10
2018-07-26T03:07:59.626Z,941.04
2018-07-26T03:09:07.519Z,941.03
2018-07-26T03:10:15.553Z,941.07
2018-07-26T03:11:23.639Z,941.04
2018-07-26T03:12:31.796Z,941.05
2018-07-26T03:13:39.767Z,941.08
2018-07-26T03:14:47.839Z,941.04
2018-07-26T03:15:55.877Z,941.09
2018-07-26T03:17:03.978Z,941.10
2018-07-26T03:18:12.377Z,941.08
2018-07-26T03:19:20.301Z,941.08
2018-07-26T03:20:28.391Z,941.09
2018-07-26T03:21:36.441Z,941.13
2018-07-26T03:22:44.604Z,941.11
2018-07-26T03:23:52.565Z,941.12
2018-07-26T03:25:00.643Z,941.13
2018-07-26T03:26:08.705Z,941.15
2018-07-26T03:27:16.781Z,941.16
2018-07-26T03:28:27.070Z,941.19
2018-07-26T03:29:32.907Z,941.19
2018-07-26T03:30:40.978Z,941.16
2018-07-26T03:31:49.060Z,941.17
2018-07-26T03:32:57.117Z,941.19
2018-07-26T03:34:05.514Z,941.17
2018-07-26T03:35:13.506Z,941.17
2018-07-26T03:36:21.588Z,941.17
2018-07-26T03:37:29.482Z,941.18
2018-07-26T03:38:37.454Z,941.18
2018-07-26T03:39:45.584Z,941.15
2018-07-26T03:40:53.575Z,941.20
2018-07-26T03:42:01.747Z,941.14
2018-07-26T03:43:09.726Z,941.16
2018-07-26T03:44:17.772Z,941.15
2018-07-26T03:45:26.027Z,941.13
2018-07-26T03:46:34.109Z,941.15
2018-07-26T03:47:42.174Z,941.16
2018-07-26T03:48:50.250Z,941.17
2018-07-26T03:49:58.533Z,941.16
2018-07-26T03:51:06.694Z,941.17
2018-07-26T03:52:14.649Z,941.20
2018-07-26T03:53:22.806Z,941.19
2018-07-26T03:54:30.787Z,941.17
2018-07-26T03:55:38.896Z,941.19
2018-07-26T03:56:47.037Z,941.25
2018-07-26T03:57:55.095Z,941.19
2018-07-26T03:59:03.048Z,941.22
2018-07-26T04:00:11.119Z,941.20
2018-07-26T04:01:19.186Z,941.20
2018-07-26T04:02:27.345Z,941.20
2018-07-26T04:03:35.301Z,941.20
2018-07-26T04:04:43.528Z,941.20
2018-07-26T04:05:51.468Z,941.19
2018-07-26T04:06:59.532Z,941.20
2018-07-26T04:08:07.697Z,941.23
2018-07-26T04:09:15.666Z,941.22
2018-07-26T04:10:23.744Z,941.21
2018-07-26T04:11:31.799Z,941.24
2018-07-26T04:12:45.166Z,941.21
2018-07-26T04:13:47.938Z,941.22
2018-07-26T04:14:55.980Z,941.25
2018-07-26T04:16:04.055Z,941.25
2018-07-26T04:17:12.151Z,941.24
2018-07-26T04:18:20.290Z,941.26
2018-07-26T04:19:28.269Z,941.20
2018-07-26T04:20:36.362Z,941.22
2018-07-26T04:21:44.410Z,941.19
2018-07-26T04:22:52.478Z,941.26
2018-07-26T04:24:01.698Z,941.23
2018-07-26T04:25:09.172Z,941.25
2018-07-26T04:26:16.754Z,941.22
2018-07-26T04:27:25.759Z,941.25
2018-07-26T04:28:33.807Z,941.25
2018-07-26T04:29:41.180Z,941.27
2018-07-26T04:30:49.408Z,941.32
2018-07-26T04:31:58.360Z,941.30
2018-07-26T04:33:05.250Z,941.33
2018-07-26T04:34:13.548Z,941.31
2018-07-26T04:35:21.728Z,941.31
2018-07-26T04:36:29.677Z,941.33
2018-07-26T04:37:37.739Z,941.34
2018-07-26T04:38:45.812Z,941.30
2018-07-26T04:39:53.895Z,941.36
2018-07-26T04:41:02.746Z,941.39
2018-07-26T04:42:10.119Z,941.42
2018-07-26T04:43:18.083Z,941.39
2018-07-26T04:44:26.149Z,941.41
2018-07-26T04:45:34.233Z,941.41
2018-07-26T04:46:42.391Z,941.42
2018-07-26T04:47:50.350Z,941.41
2018-07-26T04:48:58.576Z,941.45
2018-07-26T04:50:06.493Z,941.41
2018-07-26T04:51:14.829Z,941.46
2018-07-26T04:52:22.702Z,941.44
2018-07-26T04:53:30.697Z,941.39
2018-07-26T04:54:38.850Z,941.43
2018-07-26T04:55:47.997Z,941.36
2018-07-26T04:56:54.958Z,941.41
2018-07-26T04:58:03.066Z,941.44
2018-07-26T04:59:11.237Z,941.45
2018-07-26T05:00:19.107Z,941.52
2018-07-26T05:01:27.516Z,941.48
2018-07-26T05:02:35.299Z,941.51
2018-07-26T05:03:46.404Z,941.53
2018-07-26T05:04:51.686Z,941.50
2018-07-26T05:06:00.495Z,941.51
2018-07-26T05:07:07.511Z,941.51
2018-07-26T05:08:15.630Z,941.49
2018-07-26T05:09:23.702Z,941.53
2018-07-26T05:10:31.719Z,941.59
2018-07-26T05:11:39.880Z,941.69
2018-07-26T05:12:47.963Z,941.72
2018-07-26T05:13:58.710Z,941.71
2018-07-26T05:15:04.141Z,941.66
2018-07-26T05:16:12.066Z,941.68
2018-07-26T05:17:21.789Z,941.67
2018-07-26T05:18:28.691Z,941.71
2018-07-26T05:19:36.804Z,941.68
2018-07-26T05:20:44.344Z,941.76
2018-07-26T05:21:52.711Z,941.76
2018-07-26T05:23:00.575Z,941.74
2018-07-26T05:24:08.640Z,941.75
2018-07-26T05:25:16.615Z,941.76
2018-07-26T05:26:24.694Z,941.78
2018-07-26T05:27:32.849Z,941.75
2018-07-26T05:28:40.919Z,941.80
2018-07-26T05:29:48.879Z,941.82
2018-07-26T05:30:57.969Z,941.80
2018-07-26T05:32:05.981Z,941.79
2018-07-26T05:33:15.469Z,941.81
2018-07-26T05:34:23.660Z,941.79
2018-07-26T05:35:31.611Z,941.80
2018-07-26T05:36:39.732Z,941.81
2018-07-26T05:37:47.810Z,941.80
2018-07-26T05:38:55.782Z,941.80
2018-07-26T05:40:03.985Z,941.79
2018-07-26T05:41:13.058Z,941.80
2018-07-26T05:42:20.102Z,941.86
2018-07-26T05:43:28.192Z,941.84
2018-07-26T05:44:36.352Z,941.83
2018-07-26T05:45:44.550Z,941.88
2018-07-26T05:46:52.541Z,941.85
2018-07-26T05:48:00.560Z,941.89
2018-07-26T05:49:08.919Z,941.91
2018-07-26T05:50:16.700Z,941.92
2018-07-26T05:51:24.865Z,941.88
2018-07-26T05:52:36.224Z,941.91
2018-07-26T05:53:41.228Z,941.91
2018-07-26T05:54:48.973Z,941.91
2018-07-26T05:55:57.041Z,941.91
2018-07-26T05:57:05.108Z,941.93
2018-07-26T05:58:13.193Z,941.96
2018-07-26T05:59:21.458Z,941.93
2018-07-26T06:00:29.419Z,941.93
2018-07-26T06:01:37.488Z,941.92
2018-07-26T06:02:45.538Z,941.94
2018-07-26T06:03:53.549Z,941.96
2018-07-26T06:05:01.617Z,941.97
2018-07-26T06:06:09.684Z,941.99
2018-07-26T06:07:17.847Z,941.96
2018-07-26T06:08:25.803Z,941.92
2018-07-26T06:09:33.901Z,941.95
2018-07-26T06:10:42.045Z,941.97
2018-07-26T06:11:50.019Z,941.93
2018-07-26T06:12:58.296Z,941.97
2018-07-26T06:14:06.162Z,941.94
2018-07-26T06:15:14.336Z,941.95
2018-07-26T06:16:22.305Z,941.94
2018-07-26T06:17:30.782Z,941.99
2018-07-26T06:18:38.454Z,941.98
2018-07-26T06:19:46.510Z,942.04
2018-07-26T06:20:54.570Z,942.05
2018-07-26T06:22:02.659Z,942.03
2018-07-26T06:23:10.817Z,942.00
2018-07-26T06:24:18.783Z,942.05
2018-07-26T06:25:26.889Z,942.01
2018-07-26T06:26:35.028Z,942.02
2018-07-26T06:27:43.115Z,942.02
2018-07-26T06:28:51.069Z,941.97
2018-07-26T06:29:59.145Z,942.00
2018-07-26T06:31:07.305Z,942.00
2018-07-26T06:32:15.259Z,942.00
2018-07-26T06:33:23.510Z,942.04
2018-07-26T06:34:31.420Z,942.04
2018-07-26T06:35:39.479Z,942.01
2018-07-26T06:36:47.563Z,942.03
2018-07-26T06:37:55.985Z,942.04
2018-07-26T06:39:03.696Z,942.03
2018-07-26T06:40:11.757Z,942.04
2018-07-26T06:41:19.855Z,942.02
2018-07-26T06:42:28.119Z,942.04
2018-07-26T06:43:36.274Z,942.04
2018-07-26T06:44:44.250Z,942.11
2018-07-26T06:45:52.601Z,942.09
2018-07-26T06:47:00.457Z,942.07
2018-07-26T06:48:08.456Z,942.09
2018-07-26T06:49:17.136Z,942.09
2018-07-26T06:51:41.940Z,942.10
2018-07-26T06:52:50.021Z,942.12
2018-07-26T06:53:58.106Z,942.08
2018-07-26T06:55:06.157Z,942.04
2018-07-26T06:56:14.616Z,942.08
2018-07-26T06:57:22.313Z,942.07
2018-07-26T06:58:30.581Z,942.07
2018-07-26T06:59:38.755Z,942.06
2018-07-26T07:00:47.105Z,942.06
2018-07-26T07:01:54.787Z,942.05
2018-07-26T07:03:02.860Z,942.07
2018-07-26T07:04:10.938Z,942.08
2018-07-26T07:05:19.103Z,942.13
2018-07-26T07:06:27.402Z,942.12
2018-07-26T07:07:35.133Z,942.09
2018-07-26T07:08:43.232Z,942.09
2018-07-26T07:09:51.295Z,942.09
2018-07-26T07:10:59.750Z,942.09
2018-07-26T07:12:07.448Z,942.11
2018-07-26T07:13:15.478Z,942.10
2018-07-26T07:14:23.675Z,942.09
2018-07-26T07:15:31.646Z,942.12
2018-07-26T07:16:39.763Z,942.22
2018-07-26T07:17:48.965Z,942.18
2018-07-26T07:18:55.859Z,942.15
2018-07-26T07:20:03.942Z,942.14
2018-07-26T07:21:12.103Z,942.15
2018-07-26T07:22:20.093Z,942.22
2018-07-26T07:23:28.152Z,942.20
2018-07-26T07:24:36.499Z,942.28
2018-07-26T07:25:44.313Z,942.27
2018-07-26T07:26:52.474Z,942.38
2018-07-26T07:28:00.476Z,942.32
2018-07-26T07:29:08.543Z,942.35
2018-07-26T07:30:16.589Z,942.36
2018-07-26T07:31:24.656Z,942.99
2018-07-26T07:32:32.831Z,943.16
2018-07-26T07:33:40.793Z,943.43
2018-07-26T07:34:48.881Z,943.72
2018-07-26T07:35:56.950Z,943.83
2018-07-26T07:37:05.020Z,943.90
2018-07-26T07:38:13.211Z,944.09
2018-07-26T07:39:21.266Z,944.11
2018-07-26T07:40:29.460Z,944.34
2018-07-26T07:41:37.544Z,944.43
2018-07-26T07:42:45.680Z,944.62
2018-07-26T07:43:53.715Z,944.60
2018-07-26T07:45:01.791Z,944.60
2018-07-26T07:46:09.859Z,944.81
2018-07-26T07:47:17.984Z,944.95
2018-07-26T07:48:26.094Z,945.05
2018-07-26T07:49:34.097Z,945.17
2018-07-26T07:50:42.168Z,945.20
2018-07-26T07:51:50.231Z,945.25
2018-07-26T07:54:12.169Z,945.44
2018-07-26T07:55:20.417Z,945.64
2018-07-26T07:56:28.490Z,946.03
2018-07-26T07:57:36.299Z,946.37
2018-07-26T07:58:44.404Z,946.45
2018-07-26T07:59:52.622Z,946.48
2018-07-26T08:01:00.557Z,947.00
2018-07-26T08:02:08.707Z,947.80
2018-07-26T08:03:16.815Z,948.33
2018-07-26T08:04:24.793Z,948.69
2018-07-26T08:05:32.987Z,948.98
2018-07-26T08:06:41.013Z,949.08
2018-07-26T08:07:49.042Z,949.08
2018-07-26T08:08:57.140Z,949.47
2018-07-26T08:10:05.283Z,949.96
2018-07-26T08:11:13.350Z,950.32
2018-07-26T08:12:21.404Z,950.32
2018-07-26T08:13:29.517Z,950.30
2018-07-26T08:14:37.538Z,950.79
2018-07-26T08:15:45.711Z,951.42
2018-07-26T08:16:53.709Z,951.80
2018-07-26T08:18:01.859Z,952.06
2018-07-26T08:19:09.878Z,952.15
2018-07-26T08:21:28.781Z,952.53
2018-07-26T08:22:36.761Z,952.34
2018-07-26T08:23:44.843Z,952.07
2018-07-26T08:24:52.955Z,951.85
2018-07-26T08:26:02.006Z,951.66
2018-07-26T08:27:10.099Z,951.34
2018-07-26T08:28:18.164Z,950.77
2018-07-26T08:29:26.260Z,950.58
2018-07-26T08:30:34.361Z,951.53
2018-07-26T08:31:42.504Z,951.99
2018-07-26T08:32:50.611Z,951.71
2018-07-26T08:33:58.599Z,951.83
2018-07-26T08:35:07.013Z,952.12
2018-07-26T08:36:14.849Z,951.97
2018-07-26T08:37:22.952Z,951.73
2018-07-26T08:38:31.045Z,951.83
2018-07-26T08:39:39.055Z,951.88
2018-07-26T08:40:47.313Z,951.38
2018-07-26T08:41:55.369Z,951.67
2018-07-26T08:43:03.594Z,951.94
2018-07-26T08:46:37.847Z,952.25
2018-07-26T08:47:45.970Z,952.28
2018-07-26T08:48:53.986Z,952.00
2018-07-26T08:50:02.074Z,951.67
2018-07-26T08:51:10.151Z,951.45
2018-07-26T08:52:18.598Z,950.93
2018-07-26T08:53:26.530Z,950.77
2018-07-26T08:54:34.618Z,950.61
2018-07-26T08:55:44.349Z,950.82
2018-07-26T08:56:50.785Z,950.88
2018-07-26T08:57:58.998Z,950.51
2018-07-26T08:59:06.959Z,950.23
2018-07-26T09:00:15.047Z,950.01
2018-07-26T09:01:23.162Z,949.69
2018-07-26T09:02:31.589Z,949.52
2018-07-26T09:03:39.392Z,949.13
2018-07-26T09:04:47.386Z,948.44
2018-07-26T09:05:55.445Z,948.19
2018-07-26T09:07:03.564Z,948.06
2018-07-26T09:08:11.643Z,947.61
2018-07-26T09:09:19.837Z,947.39
2018-07-26T09:10:28.078Z,947.01
2018-07-26T09:11:35.915Z,946.79
2018-07-26T09:12:44.009Z,946.06
2018-07-26T09:13:52.208Z,945.61
2018-07-26T09:15:00.142Z,945.65
2018-07-26T09:16:08.271Z,945.62
2018-07-26T09:17:16.371Z,945.37
2018-07-26T09:18:24.707Z,945.23
2018-07-26T09:19:33.448Z,945.30
2018-07-26T09:20:40.795Z,945.31
2018-07-26T09:21:48.968Z,945.14
2018-07-26T09:22:56.986Z,944.84
2018-07-26T09:24:05.040Z,943.21
2018-07-26T09:25:13.217Z,942.14
2018-07-26T09:26:21.306Z,942.19
2018-07-26T09:27:29.290Z,942.13
2018-07-26T09:28:37.382Z,942.23
2018-07-26T09:29:48.224Z,942.22
2018-07-26T09:30:53.580Z,942.16
2018-07-26T09:32:01.626Z,942.14
2018-07-26T09:33:09.944Z,942.24
2018-07-26T09:34:18.109Z,942.20
2018-07-26T09:35:26.224Z,942.12
2018-07-26T09:36:34.131Z,942.14
2018-07-26T09:37:42.236Z,942.14
2018-07-26T09:38:50.305Z,942.19
2018-07-26T09:39:58.384Z,942.23
2018-07-26T09:41:06.600Z,942.13
2018-07-26T09:42:14.549Z,942.20
2018-07-26T09:43:22.657Z,942.26
2018-07-26T09:44:30.848Z,942.20
2018-07-26T09:45:38.876Z,942.18
2018-07-26T09:46:46.981Z,942.24
2018-07-26T09:47:54.948Z,942.19
2018-07-26T09:49:03.008Z,942.15
2018-07-26T09:50:11.308Z,942.20
2018-07-26T09:51:19.167Z,942.18
2018-07-26T09:52:27.252Z,942.14
2018-07-26T09:53:35.300Z,942.17
2018-07-26T09:54:43.398Z,942.14
2018-07-26T09:55:51.501Z,942.16
2018-07-26T09:56:59.649Z,942.18
2018-07-26T09:58:07.637Z,942.17
2018-07-26T09:59:15.728Z,942.11
2018-07-26T10:00:23.797Z,942.13
2018-07-26T10:01:31.852Z,942.10
2018-07-26T10:02:43.237Z,942.10
2018-07-26T10:03:48.136Z,942.05
2018-07-26T10:04:56.078Z,942.06
2018-07-26T10:06:07.756Z,942.10
2018-07-26T10:07:12.236Z,942.11
2018-07-26T10:08:20.435Z,942.10
2018-07-26T10:09:28.385Z,942.14
2018-07-26T10:10:36.588Z,942.11
2018-07-26T10:11:44.559Z,942.09
2018-07-26T10:12:52.716Z,942.12
2018-07-26T10:14:01.101Z,942.03
2018-07-26T10:15:08.850Z,942.06
2018-07-26T10:16:16.900Z,942.03
2018-07-26T10:17:25.187Z,942.02
2018-07-26T10:18:33.013Z,941.98
2018-07-26T10:19:41.074Z,942.04
2018-07-26T10:20:49.127Z,942.01
2018-07-26T10:21:57.320Z,942.06
2018-07-26T10:23:05.329Z,942.02
2018-07-26T10:24:13.373Z,942.14
2018-07-26T10:25:21.710Z,942.06
2018-07-26T10:26:29.531Z,942.13
2018-07-26T10:27:37.603Z,942.05
2018-07-26T10:28:46.298Z,942.01
2018-07-26T10:31:01.953Z,941.99
2018-07-26T10:32:10.088Z,942.00
2018-07-26T10:33:18.174Z,941.95
2018-07-26T10:34:26.350Z,941.92
2018-07-26T10:35:34.377Z,941.95
2018-07-26T10:36:42.389Z,941.99
2018-07-26T10:37:50.562Z,942.06
2018-07-26T10:38:58.532Z,942.00
2018-07-26T10:40:06.709Z,941.87
2018-07-26T10:41:14.683Z,941.88
2018-07-26T10:42:22.744Z,941.90
2018-07-26T10:44:38.974Z,941.87
2018-07-26T10:45:47.056Z,941.95
2018-07-26T10:46:55.055Z,941.96
2018-07-26T10:48:03.142Z,941.89
2018-07-26T10:49:11.488Z,941.83
2018-07-26T10:50:19.286Z,941.90
2018-07-26T10:51:27.544Z,942.01
2018-07-26T10:52:35.503Z,941.92
2018-07-26T10:53:43.501Z,941.97
2018-07-26T10:54:51.618Z,941.94
2018-07-26T10:55:59.671Z,941.89
2018-07-26T10:57:07.839Z,941.91
2018-07-26T10:58:15.813Z,941.88
2018-07-26T10:59:23.890Z,941.90
2018-07-26T11:00:32.002Z,941.85
2018-07-26T11:01:40.057Z,941.89
2018-07-26T11:02:48.198Z,941.96
2018-07-26T11:03:56.228Z,941.89
2018-07-26T11:05:04.257Z,941.95
2018-07-26T11:06:12.326Z,941.85
2018-07-26T11:07:20.413Z,941.80
2018-07-26T11:08:28.498Z,941.84
2018-07-26T11:09:36.810Z,941.78
2018-07-26T11:10:45.045Z,941.81
2018-07-26T11:11:53.156Z,941.79
2018-07-26T11:13:01.243Z,941.75
2018-07-26T11:14:09.283Z,941.78
2018-07-26T11:15:17.382Z,941.81
2018-07-26T11:16:25.425Z,941.81
2018-07-26T11:17:33.607Z,941.80
2018-07-26T11:18:41.570Z,941.82
2018-07-26T11:19:49.691Z,941.80
2018-07-26T11:20:57.991Z,941.81
2018-07-26T11:22:05.771Z,941.78
2018-07-26T11:23:13.956Z,941.79
2018-07-26T11:24:22.002Z,941.83
2018-07-26T11:25:30.050Z,941.84
2018-07-26T11:26:38.086Z,941.79
2018-07-26T11:27:48.674Z,941.76
2018-07-26T11:28:54.557Z,941.73
2018-07-26T11:30:03.436Z,941.73
2018-07-26T11:31:10.402Z,941.79
2018-07-26T11:32:18.509Z,941.79
2018-07-26T11:33:26.646Z,941.75
2018-07-26T11:34:34.630Z,941.72
2018-07-26T11:35:42.685Z,941.74
2018-07-26T11:36:50.773Z,941.77
2018-07-26T11:37:58.891Z,941.74
2018-07-26T11:39:07.007Z,941.76
2018-07-26T11:40:18.204Z,941.73
2018-07-26T11:41:23.085Z,941.77
2018-07-26T11:42:31.167Z,941.73
2018-07-26T11:43:39.263Z,941.71
2018-07-26T11:44:47.381Z,941.70
2018-07-26T11:45:55.373Z,941.77
2018-07-26T11:47:03.450Z,941.75
2018-07-26T11:48:11.517Z,941.71
2018-07-26T11:49:22.916Z,941.66
2018-07-26T11:50:27.765Z,941.65
2018-07-26T11:51:35.719Z,941.61
2018-07-26T11:52:43.869Z,941.60
2018-07-26T11:53:51.888Z,941.58
2018-07-26T11:55:00.086Z,941.57
2018-07-26T11:56:08.054Z,941.63
2018-07-26T11:57:16.108Z,941.54
2018-07-26T11:58:24.212Z,941.48
2018-07-26T11:59:32.265Z,941.54
2018-07-26T12:00:40.700Z,941.56
2018-07-26T12:01:51.659Z,941.55
2018-07-26T12:02:56.493Z,941.55
2018-07-26T12:04:04.562Z,941.65
2018-07-26T12:05:12.652Z,941.64
2018-07-26T12:06:20.819Z,941.65
2018-07-26T12:07:28.805Z,941.62
2018-07-26T12:08:36.872Z,941.54
2018-07-26T12:09:44.948Z,941.47
2018-07-26T12:10:53.137Z,941.56
2018-07-26T12:12:01.158Z,941.49
2018-07-26T12:13:09.156Z,941.53
2018-07-26T12:14:20.464Z,941.46
2018-07-26T12:15:25.505Z,941.60
2018-07-26T12:16:33.582Z,941.56
2018-07-26T12:17:43.968Z,941.60
2018-07-26T12:18:49.729Z,941.54
2018-07-26T12:19:57.805Z,941.61
2018-07-26T12:21:05.880Z,941.53
2018-07-26T12:22:14.218Z,941.50
2018-07-26T12:23:22.144Z,941.46
2018-07-26T12:24:30.112Z,941.46
2018-07-26T12:25:38.201Z,941.49
2018-07-26T12:26:46.445Z,941.43
2018-07-26T12:27:54.350Z,941.43
2018-07-26T12:29:02.711Z,941.42
2018-07-26T12:30:10.920Z,941.52
2018-07-26T12:31:19.253Z,941.55
2018-07-26T12:32:27.147Z,941.52
2018-07-26T12:33:35.149Z,941.48
2018-07-26T12:34:43.556Z,941.44
2018-07-26T12:35:51.282Z,941.44
2018-07-26T12:37:00.564Z,941.43
2018-07-26T12:38:07.435Z,941.40
2018-07-26T12:39:15.480Z,941.40
2018-07-26T12:40:23.666Z,941.40
2018-07-26T12:41:31.763Z,941.38
2018-07-26T12:42:39.847Z,941.31
2018-07-26T12:43:47.794Z,941.33
2018-07-26T12:44:55.844Z,941.30
2018-07-26T12:46:04.516Z,941.26
2018-07-26T12:47:12.226Z,941.24
2018-07-26T12:48:20.312Z,941.27
2018-07-26T12:49:28.391Z,941.24
2018-07-26T12:50:36.468Z,941.33
2018-07-26T12:51:49.993Z,941.23
2018-07-26T12:52:52.811Z,941.26
2018-07-26T12:54:00.889Z,941.26
2018-07-26T12:55:08.984Z,941.23
2018-07-26T12:56:17.043Z,941.24
2018-07-26T12:57:25.184Z,941.19
2018-07-26T12:58:33.202Z,941.16
2018-07-26T12:59:41.248Z,941.15
2018-07-26T13:00:49.323Z,941.13
2018-07-26T13:01:57.688Z,941.14
2018-07-26T13:03:05.559Z,941.11
2018-07-26T13:04:13.543Z,941.13
2018-07-26T13:05:21.653Z,941.10
2018-07-26T13:06:29.716Z,941.10
2018-07-26T13:07:38.152Z,941.08
2018-07-26T13:08:47.670Z,941.10
2018-07-26T13:09:53.927Z,941.05
2018-07-26T13:11:01.998Z,941.08
2018-07-26T13:12:10.081Z,941.08
2018-07-26T13:13:18.827Z,941.02
2018-07-26T13:14:26.449Z,941.03
2018-07-26T13:15:34.513Z,941.01
2018-07-26T13:16:42.596Z,941.04
2018-07-26T13:17:50.795Z,940.99
2018-07-26T13:18:58.744Z,941.07
2018-07-26T13:20:06.818Z,941.02
2018-07-26T13:21:14.906Z,940.99
2018-07-26T13:22:22.973Z,941.01
2018-07-26T13:23:31.124Z,940.99
2018-07-26T13:24:39.133Z,940.96
2018-07-26T13:25:47.180Z,941.02
2018-07-26T13:26:55.247Z,941.00
2018-07-26T13:28:03.780Z,941.02
2018-07-26T13:29:11.507Z,940.98
2018-07-26T13:30:19.479Z,941.06
2018-07-26T13:31:27.713Z,941.00
2018-07-26T13:32:35.616Z,940.97
2018-07-26T13:33:43.725Z,941.02
2018-07-26T13:34:51.884Z,940.92
2018-07-26T13:36:00.105Z,941.05
2018-07-26T13:37:07.990Z,941.05
2018-07-26T13:38:16.015Z,941.07
2018-07-26T13:39:24.077Z,941.06
2018-07-26T13:40:32.242Z,941.03
2018-07-26T13:41:40.249Z,940.98
2018-07-26T13:42:48.424Z,941.01
2018-07-26T13:43:56.384Z,940.96
2018-07-26T13:45:04.458Z,940.90
2018-07-26T13:46:12.669Z,940.94
2018-07-26T13:47:20.669Z,940.90
2018-07-26T13:48:28.691Z,940.91
2018-07-26T13:49:36.783Z,940.87
2018-07-26T13:50:44.842Z,940.92
2018-07-26T13:51:53.010Z,940.93
2018-07-26T13:53:00.981Z,940.93
2018-07-26T13:54:09.044Z,940.92
2018-07-26T13:55:17.110Z,940.92
2018-07-26T13:56:25.192Z,940.88
2018-07-26T13:57:33.369Z,940.84
2018-07-26T13:58:41.456Z,940.82
2018-07-26T13:59:49.456Z,940.85
2018-07-26T14:00:57.513Z,940.89
2018-07-26T14:02:05.572Z,940.89
2018-07-26T14:03:13.762Z,940.85
2018-07-26T14:04:21.741Z,940.85
2018-07-26T14:05:29.815Z,940.83
2018-07-26T14:06:37.881Z,940.83
2018-07-26T14:07:45.979Z,940.83
2018-07-26T14:08:54.300Z,940.84
2018-07-26T14:10:02.114Z,940.90
2018-07-26T14:11:10.181Z,940.82
2018-07-26T14:12:18.242Z,940.83
2018-07-26T14:13:26.423Z,940.78
2018-07-26T14:14:34.483Z,940.87
2018-07-26T14:15:42.586Z,940.82
2018-07-26T14:16:50.839Z,940.80
2018-07-26T14:17:58.700Z,940.84
2018-07-26T14:19:06.685Z,940.81
2018-07-26T14:20:14.768Z,940.82
2018-07-26T14:21:22.851Z,940.75